createdAt,value
2022-11-18T00:00:02.479Z,13.12
2022-11-18T00:04:08.402Z,13.02
2022-11-18T00:08:12.579Z,13.12
2022-11-18T00:12:33.982Z,13.13
2022-11-18T00:16:36.719Z,12.95
2022-11-18T00:20:39.327Z,12.96
2022-11-18T00:24:41.461Z,13.01
2022-11-18T00:28:43.607Z,12.95
2022-11-18T00:32:45.710Z,12.88
2022-11-18T00:36:48.297Z,12.83
2022-11-18T00:40:50.464Z,12.85
2022-11-18T00:44:52.810Z,12.78
2022-11-18T00:48:54.957Z,12.75
2022-11-18T00:52:57.104Z,12.77
2022-11-18T00:56:59.219Z,12.84
2022-11-18T01:01:01.682Z,12.91
2022-11-18T01:05:04.748Z,12.87
2022-11-18T01:09:07.317Z,12.89
2022-11-18T01:13:20.433Z,12.99
2022-11-18T01:17:22.790Z,13.00
2022-11-18T01:21:25.071Z,13.02
2022-11-18T01:25:28.879Z,12.99
2022-11-18T01:29:31.133Z,12.92
2022-11-18T01:33:33.591Z,13.01
2022-11-18T01:37:35.917Z,13.00
2022-11-18T01:41:38.377Z,12.89
2022-11-18T01:45:42.359Z,13.01
2022-11-18T01:49:44.752Z,13.08
2022-11-18T01:54:02.888Z,13.18
2022-11-18T01:58:14.798Z,13.23
2022-11-18T02:02:17.320Z,13.21
2022-11-18T02:06:20.026Z,13.23
2022-11-18T02:10:25.195Z,13.19
2022-11-18T02:14:30.092Z,13.10
2022-11-18T02:19:01.935Z,13.01
2022-11-18T02:23:46.617Z,12.99
2022-11-18T02:28:01.008Z,13.06
2022-11-18T02:32:19.157Z,13.17
2022-11-18T02:36:30.560Z,13.21
2022-11-18T02:40:37.436Z,13.14
2022-11-18T02:44:44.053Z,13.22
2022-11-18T02:48:50.722Z,13.22
2022-11-18T02:52:57.571Z,13.12
2022-11-18T02:57:01.145Z,12.98
2022-11-18T03:01:03.449Z,13.03
2022-11-18T03:05:09.152Z,13.07
2022-11-18T03:09:11.202Z,13.06
2022-11-18T03:13:31.051Z,12.95
2022-11-18T03:17:48.440Z,12.85
2022-11-18T03:22:08.417Z,12.90
2022-11-18T03:26:40.690Z,12.94
2022-11-18T03:31:12.069Z,12.94
2022-11-18T03:35:21.178Z,12.99
2022-11-18T03:39:26.587Z,12.99
2022-11-18T03:43:35.403Z,12.97
2022-11-18T03:47:49.067Z,12.94
2022-11-18T03:51:56.933Z,12.89
2022-11-18T03:56:06.922Z,12.80
2022-11-18T04:00:15.543Z,12.78
2022-11-18T04:04:17.731Z,12.77
2022-11-18T04:08:24.640Z,12.80
2022-11-18T04:12:31.179Z,12.79
2022-11-18T04:16:42.976Z,12.87
2022-11-18T04:20:45.197Z,12.75
2022-11-18T04:24:47.710Z,12.70
2022-11-18T04:28:49.792Z,12.84
2022-11-18T04:32:51.887Z,12.82
2022-11-18T04:36:54.168Z,12.87
2022-11-18T04:40:56.314Z,12.88
2022-11-18T04:44:58.872Z,12.87
2022-11-18T04:49:00.963Z,12.86
2022-11-18T04:53:03.142Z,12.93
2022-11-18T04:57:05.339Z,13.03
2022-11-18T05:01:07.492Z,13.10
2022-11-18T05:05:09.851Z,13.14
2022-11-18T05:09:12.700Z,13.17
2022-11-18T05:13:14.784Z,13.21
2022-11-18T05:17:16.825Z,13.21
2022-11-18T05:21:18.909Z,12.97
2022-11-18T05:25:21.083Z,12.77
2022-11-18T05:29:23.757Z,12.76
2022-11-18T05:33:25.872Z,12.81
2022-11-18T05:37:27.965Z,12.84
2022-11-18T05:41:48.612Z,12.86
2022-11-18T05:45:52.241Z,12.87
2022-11-18T05:49:54.421Z,12.83
2022-11-18T05:53:57.631Z,12.84
2022-11-18T05:57:59.637Z,12.81
2022-11-18T06:02:06.337Z,12.79
2022-11-18T06:06:10.933Z,12.70
2022-11-18T06:10:22.799Z,12.70
2022-11-18T06:19:09.473Z,12.59
2022-11-18T06:23:12.251Z,12.56
2022-11-18T06:27:15.459Z,12.52
2022-11-18T06:31:18.172Z,12.48
2022-11-18T06:35:20.226Z,12.46
2022-11-18T06:39:22.551Z,12.42
2022-11-18T06:43:41.444Z,12.43
2022-11-18T06:47:43.492Z,12.49
2022-11-18T06:51:46.207Z,12.54
2022-11-18T06:55:48.604Z,12.64
2022-11-18T06:59:50.698Z,12.76
2022-11-18T07:03:53.201Z,12.91
2022-11-18T07:07:55.270Z,13.06
2022-11-18T07:11:57.487Z,13.21
2022-11-18T07:16:11.093Z,13.36
2022-11-18T07:20:13.230Z,13.39
2022-11-18T07:24:16.384Z,13.49
2022-11-18T07:28:18.761Z,13.61
2022-11-18T07:32:21.234Z,13.70
2022-11-18T07:36:35.198Z,13.76
2022-11-18T07:40:37.801Z,13.88
2022-11-18T07:44:39.915Z,14.07
2022-11-18T07:48:45.076Z,14.25
2022-11-18T07:52:47.079Z,14.35
2022-11-18T07:56:49.173Z,14.55
2022-11-18T08:00:51.289Z,14.85
2022-11-18T08:04:53.517Z,15.01
2022-11-18T08:08:55.630Z,15.10
2022-11-18T08:12:57.892Z,15.28
2022-11-18T08:17:00.290Z,15.49
2022-11-18T08:21:03.625Z,15.53
2022-11-18T08:25:07.411Z,15.61
2022-11-18T08:29:09.800Z,15.72
2022-11-18T08:33:11.924Z,15.65
2022-11-18T08:37:14.112Z,15.41
2022-11-18T08:41:21.400Z,15.05
2022-11-18T08:45:23.643Z,14.69
2022-11-18T08:49:31.085Z,14.27
2022-11-18T08:53:34.538Z,14.21
2022-11-18T08:57:36.621Z,14.24
2022-11-18T09:01:39.022Z,14.24
2022-11-18T09:05:41.187Z,14.36
2022-11-18T09:09:43.469Z,14.47
2022-11-18T09:14:53.364Z,14.58
2022-11-18T09:18:09.074Z,14.57
2022-11-18T09:22:11.170Z,14.60
2022-11-18T09:26:16.113Z,14.56
2022-11-18T09:30:18.404Z,14.67
2022-11-18T09:34:21.097Z,14.98
2022-11-18T09:38:23.252Z,15.04
2022-11-18T09:43:16.723Z,15.33
2022-11-18T09:47:28.506Z,15.52
2022-11-18T09:51:38.025Z,15.66
2022-11-18T09:55:42.102Z,15.68
2022-11-18T09:59:45.872Z,15.71
2022-11-18T10:03:48.542Z,16.02
2022-11-18T10:08:15.611Z,16.25
2022-11-18T10:12:33.660Z,16.37
2022-11-18T10:16:55.174Z,16.46
2022-11-18T10:22:00.529Z,16.45
2022-11-18T10:26:09.803Z,16.12
2022-11-18T10:30:24.580Z,15.57
2022-11-18T10:34:35.603Z,15.18
2022-11-18T10:38:49.672Z,15.11
2022-11-18T10:42:59.105Z,15.03
2022-11-18T10:47:33.067Z,15.26
2022-11-18T10:51:43.371Z,15.30
2022-11-18T10:56:03.172Z,15.47
2022-11-18T11:00:38.780Z,15.67
2022-11-18T11:04:49.123Z,15.86
2022-11-18T11:09:00.778Z,15.91
2022-11-18T11:13:13.117Z,15.96
2022-11-18T11:18:13.782Z,16.00
2022-11-18T11:22:16.548Z,16.35
2022-11-18T11:31:20.420Z,17.27
2022-11-18T11:35:34.978Z,17.66
2022-11-18T11:40:19.071Z,17.89
2022-11-18T11:44:36.997Z,17.78
2022-11-18T11:49:29.610Z,17.60
2022-11-18T11:53:53.580Z,17.67
2022-11-18T11:58:16.848Z,17.35
2022-11-18T12:02:40.212Z,17.35
2022-11-18T12:06:47.145Z,17.30
2022-11-18T12:10:52.183Z,17.31
2022-11-18T12:14:59.601Z,17.34
2022-11-18T12:19:14.841Z,17.05
2022-11-18T12:23:26.563Z,17.41
2022-11-18T12:27:28.569Z,17.63
2022-11-18T12:31:33.450Z,17.59
2022-11-18T12:35:36.913Z,17.30
2022-11-18T12:39:42.169Z,17.09
2022-11-18T12:44:06.381Z,17.18
2022-11-18T12:48:27.369Z,17.10
2022-11-18T12:52:29.955Z,16.92
2022-11-18T12:56:37.022Z,16.94
2022-11-18T13:00:52.754Z,16.87
2022-11-18T13:05:28.260Z,16.72
2022-11-18T13:09:34.307Z,16.64
2022-11-18T13:13:40.176Z,16.73
2022-11-18T13:17:52.301Z,16.72
2022-11-18T13:22:18.024Z,16.71
2022-11-18T13:26:26.616Z,16.68
2022-11-18T13:30:30.143Z,16.73
2022-11-18T13:34:40.254Z,16.68
2022-11-18T13:38:58.085Z,16.64
2022-11-18T13:43:00.145Z,16.63
2022-11-18T13:47:30.548Z,16.68
2022-11-18T13:51:32.931Z,16.75
2022-11-18T13:55:45.781Z,16.85
2022-11-18T13:59:50.120Z,16.86
2022-11-18T14:04:02.356Z,16.89
2022-11-18T14:08:07.043Z,16.79
2022-11-18T14:12:15.513Z,16.64
2022-11-18T14:16:20.618Z,16.52
2022-11-18T14:20:24.603Z,16.44
2022-11-18T14:24:27.862Z,16.43
2022-11-18T14:28:37.039Z,16.40
2022-11-18T14:32:39.234Z,16.49
2022-11-18T14:36:41.527Z,16.58
2022-11-18T14:40:43.861Z,16.48
2022-11-18T14:44:45.807Z,16.50
2022-11-18T14:48:48.026Z,16.53
2022-11-18T14:52:50.069Z,16.59
2022-11-18T14:56:55.581Z,16.63
2022-11-18T15:00:57.747Z,16.71
2022-11-18T15:04:59.964Z,16.76
2022-11-18T15:09:02.691Z,16.69
2022-11-18T15:13:04.930Z,16.48
2022-11-18T15:17:07.023Z,16.32
2022-11-18T15:21:09.274Z,16.13
2022-11-18T15:25:11.483Z,16.00
2022-11-18T15:29:21.787Z,15.90
2022-11-18T15:33:23.885Z,15.74
2022-11-18T15:37:25.967Z,15.61
2022-11-18T15:41:30.723Z,15.49
2022-11-18T15:45:32.777Z,15.42
2022-11-18T15:49:35.104Z,15.36
2022-11-18T15:53:37.456Z,15.27
2022-11-18T15:57:39.611Z,15.20
2022-11-18T16:01:44.292Z,15.21
2022-11-18T16:05:46.378Z,15.15
2022-11-18T16:10:07.161Z,15.11
2022-11-18T16:14:11.709Z,15.07
2022-11-18T16:18:16.479Z,15.04
2022-11-18T16:22:18.521Z,14.97
2022-11-18T16:26:20.604Z,14.87
2022-11-18T16:30:41.946Z,14.76
2022-11-18T16:34:47.049Z,14.63
2022-11-18T16:38:49.131Z,14.53
2022-11-18T16:42:52.181Z,14.42
2022-11-18T16:46:56.622Z,14.34
2022-11-18T16:51:22.245Z,14.27
2022-11-18T16:55:24.328Z,14.20
2022-11-18T16:59:29.324Z,14.09
2022-11-18T17:03:31.366Z,14.03
2022-11-18T17:07:38.295Z,13.86
2022-11-18T17:11:41.031Z,13.68
2022-11-18T17:15:43.207Z,13.41
2022-11-18T17:19:45.397Z,13.22
2022-11-18T17:23:48.689Z,13.10
2022-11-18T17:27:51.048Z,12.96
2022-11-18T17:31:54.316Z,13.00
2022-11-18T17:36:01.563Z,12.96
2022-11-18T17:40:03.847Z,12.98
2022-11-18T17:44:08.119Z,13.07
2022-11-18T17:48:10.232Z,13.13
2022-11-18T17:52:12.545Z,13.17
2022-11-18T17:56:14.998Z,13.12
2022-11-18T18:00:17.904Z,13.16
2022-11-18T18:04:21.556Z,13.15
2022-11-18T18:08:23.812Z,13.11
2022-11-18T18:12:47.322Z,12.95
2022-11-18T18:16:50.724Z,12.76
2022-11-18T18:20:53.532Z,12.64
2022-11-18T18:24:58.556Z,12.81
2022-11-18T18:29:01.104Z,12.88
2022-11-18T18:33:03.122Z,12.81
2022-11-18T18:37:05.289Z,12.78
2022-11-18T18:41:10.400Z,12.59
2022-11-18T18:45:31.407Z,12.33
2022-11-18T18:49:33.470Z,12.38
2022-11-18T18:53:35.604Z,12.18
2022-11-18T18:57:40.425Z,12.18
2022-11-18T19:01:42.858Z,12.16
2022-11-18T19:06:17.384Z,11.89
2022-11-18T19:10:10.759Z,11.90
2022-11-18T19:14:15.535Z,11.80
2022-11-18T19:18:17.680Z,11.64
2022-11-18T19:22:19.721Z,11.60
2022-11-18T19:26:22.214Z,11.56
2022-11-18T19:30:24.707Z,11.53
2022-11-18T19:34:26.885Z,11.41
2022-11-18T19:38:29.031Z,11.25
2022-11-18T19:42:32.196Z,10.96
2022-11-18T19:46:34.615Z,10.98
2022-11-18T19:50:36.757Z,10.88
2022-11-18T19:54:41.874Z,10.64
2022-11-18T19:58:45.639Z,10.55
2022-11-18T20:02:47.753Z,10.58
2022-11-18T20:06:53.395Z,10.54
2022-11-18T20:10:55.557Z,10.65
2022-11-18T20:15:00.547Z,10.62
2022-11-18T20:19:10.360Z,10.62
2022-11-18T20:23:13.235Z,10.31
2022-11-18T20:27:20.026Z,10.26
2022-11-18T20:31:23.170Z,10.23
2022-11-18T20:35:25.780Z,10.11
2022-11-18T20:39:30.796Z,9.98
2022-11-18T20:43:37.079Z,9.92
2022-11-18T20:47:39.305Z,9.71
2022-11-18T20:51:41.297Z,9.71
2022-11-18T20:55:43.923Z,9.78
2022-11-18T20:59:46.428Z,9.64
2022-11-18T21:03:52.807Z,9.48
2022-11-18T21:07:55.137Z,9.45
2022-11-18T21:11:58.818Z,9.26
2022-11-18T21:16:01.775Z,9.09
2022-11-18T21:20:49.838Z,9.02
2022-11-18T21:24:51.972Z,9.06
2022-11-18T21:28:56.612Z,9.23
2022-11-18T21:32:58.958Z,9.25
2022-11-18T21:37:01.452Z,9.09
2022-11-18T21:41:13.716Z,9.23
2022-11-18T21:45:17.260Z,9.34
2022-11-18T21:49:19.651Z,9.30
2022-11-18T21:53:22.214Z,9.21
2022-11-18T21:57:24.708Z,9.27
2022-11-18T22:01:29.652Z,9.29
2022-11-18T22:05:31.933Z,9.28
2022-11-18T22:09:36.670Z,9.10
2022-11-18T22:13:43.085Z,9.16
2022-11-18T22:17:48.543Z,9.18
2022-11-18T22:21:51.741Z,9.24
2022-11-18T22:26:06.924Z,9.36
2022-11-18T22:30:09.550Z,9.39
2022-11-18T22:34:11.876Z,9.41
2022-11-18T22:38:14.010Z,9.45
2022-11-18T22:42:34.975Z,9.38
2022-11-18T22:46:38.311Z,9.29
2022-11-18T22:50:43.506Z,9.20
2022-11-18T22:54:48.590Z,9.14
2022-11-18T22:58:50.701Z,9.23
2022-11-18T23:02:52.703Z,9.17
2022-11-18T23:06:54.770Z,9.04
2022-11-18T23:11:05.090Z,9.21
2022-11-18T23:15:07.921Z,9.24
2022-11-18T23:19:15.083Z,9.24
2022-11-18T23:23:17.488Z,9.32
2022-11-18T23:27:19.681Z,9.40
2022-11-18T23:31:23.909Z,9.35
2022-11-18T23:35:26.309Z,9.34
2022-11-18T23:39:28.424Z,9.19
2022-11-18T23:43:31.608Z,9.03
2022-11-18T23:47:36.522Z,8.97
2022-11-18T23:51:41.941Z,8.94
2022-11-18T23:55:44.064Z,8.90
2022-11-18T23:59:46.562Z,9.00
